createdAt,value
2023-03-21T00:01:55.645Z,81.88
2023-03-21T00:04:29.661Z,79.72
2023-03-21T00:06:58.541Z,81.18
2023-03-21T00:09:26.122Z,81.10
2023-03-21T00:11:53.006Z,75.07
2023-03-21T00:14:20.588Z,78.50
2023-03-21T00:16:52.597Z,77.22
2023-03-21T00:19:21.196Z,77.20
2023-03-21T00:22:08.833Z,72.90
2023-03-21T00:24:37.150Z,76.80
2023-03-21T00:27:29.826Z,71.10
2023-03-21T00:29:51.681Z,76.47
2023-03-21T00:32:19.464Z,74.65
2023-03-21T00:34:59.586Z,80.22
2023-03-21T00:37:32.316Z,77.35
2023-03-21T00:39:59.568Z,73.35
2023-03-21T00:42:27.085Z,72.95
2023-03-21T00:44:53.929Z,77.47
2023-03-21T00:47:20.853Z,78.07
2023-03-21T00:49:48.098Z,79.40
2023-03-21T00:52:20.431Z,80.30
2023-03-21T00:54:51.688Z,77.82
2023-03-21T00:57:22.027Z,79.90
2023-03-21T00:59:49.373Z,74.43
2023-03-21T01:02:23.303Z,77.65
2023-03-21T01:04:50.537Z,82.72
2023-03-21T01:07:17.869Z,76.25
2023-03-21T01:09:45.318Z,77.95
2023-03-21T01:12:12.640Z,79.05
2023-03-21T01:14:39.571Z,80.30
2023-03-21T01:17:07.145Z,79.63
2023-03-21T01:19:50.174Z,77.47
2023-03-21T01:22:17.552Z,76.55
2023-03-21T01:24:52.995Z,84.20
2023-03-21T01:27:24.042Z,84.05
2023-03-21T01:29:51.236Z,81.18
2023-03-21T01:32:18.438Z,78.65
2023-03-21T01:34:45.275Z,77.28
2023-03-21T01:37:12.488Z,80.32
2023-03-21T01:39:39.262Z,83.85
2023-03-21T01:42:06.523Z,78.38
2023-03-21T01:44:56.851Z,83.75
2023-03-21T01:47:24.112Z,83.93
2023-03-21T01:49:55.538Z,79.95
2023-03-21T01:52:37.807Z,78.78
2023-03-21T01:55:08.271Z,83.13
2023-03-21T01:57:49.453Z,78.22
2023-03-21T02:00:21.556Z,84.97
2023-03-21T02:02:58.258Z,78.90
2023-03-21T02:05:49.676Z,85.53
2023-03-21T02:08:16.814Z,79.93
2023-03-21T02:10:47.426Z,89.10
2023-03-21T02:13:15.944Z,83.82
2023-03-21T02:15:53.809Z,82.05
2023-03-21T02:18:29.174Z,82.43
2023-03-21T02:21:31.538Z,84.82
2023-03-21T02:24:25.743Z,81.75
2023-03-21T02:27:11.893Z,79.70
2023-03-21T02:30:08.708Z,77.03
2023-03-21T02:32:55.914Z,81.78
2023-03-21T02:35:37.082Z,80.38
2023-03-21T02:38:18.359Z,83.28
2023-03-21T02:41:20.034Z,87.82
2023-03-21T02:44:17.137Z,84.93
2023-03-21T02:47:05.546Z,84.38
2023-03-21T02:49:50.941Z,82.28
2023-03-21T02:52:37.727Z,82.20
2023-03-21T02:55:27.239Z,83.53
2023-03-21T02:57:56.417Z,81.43
2023-03-21T03:00:27.561Z,81.72
2023-03-21T03:03:08.243Z,79.35
2023-03-21T03:05:43.884Z,78.78
2023-03-21T03:09:01.518Z,80.00
2023-03-21T03:11:34.103Z,84.72
2023-03-21T03:14:40.039Z,78.53
2023-03-21T03:17:32.884Z,75.35
2023-03-21T03:20:21.022Z,73.60
2023-03-21T03:23:31.504Z,76.90
2023-03-21T03:26:13.077Z,71.05
2023-03-21T03:28:46.827Z,72.38
2023-03-21T03:31:16.697Z,73.95
2023-03-21T03:33:49.723Z,71.15
2023-03-21T03:36:31.119Z,72.07
2023-03-21T03:38:59.815Z,77.40
2023-03-21T03:41:29.977Z,74.82
2023-03-21T03:44:01.326Z,68.35
2023-03-21T03:46:36.135Z,71.80
2023-03-21T03:49:10.558Z,71.30
2023-03-21T03:51:54.538Z,71.05
2023-03-21T03:54:32.364Z,70.40
2023-03-21T03:56:59.744Z,75.25
2023-03-21T03:59:27.047Z,63.05
2023-03-21T04:01:54.460Z,71.32
2023-03-21T04:04:23.032Z,71.38
2023-03-21T04:06:53.464Z,64.85
2023-03-21T04:09:28.838Z,68.88
2023-03-21T04:12:01.420Z,73.38
2023-03-21T04:14:33.181Z,75.40
2023-03-21T04:17:09.033Z,66.43
2023-03-21T04:19:36.623Z,66.72
2023-03-21T04:22:03.874Z,65.95
2023-03-21T04:24:33.822Z,63.92
2023-03-21T04:27:00.947Z,64.45
2023-03-21T04:29:29.837Z,66.95
2023-03-21T04:31:57.443Z,67.80
2023-03-21T04:34:28.278Z,67.68
2023-03-21T04:36:56.254Z,63.58
2023-03-21T04:39:24.747Z,64.70
2023-03-21T04:41:52.070Z,59.83
2023-03-21T04:44:19.390Z,65.78
2023-03-21T04:46:46.257Z,66.78
2023-03-21T04:49:13.511Z,75.65
2023-03-21T04:51:41.232Z,65.05
2023-03-21T04:56:35.584Z,57.97
2023-03-21T04:59:07.421Z,60.08
2023-03-21T05:01:34.645Z,64.32
2023-03-21T05:04:03.103Z,61.65
2023-03-21T05:06:30.610Z,62.88
2023-03-21T05:09:01.854Z,62.50
2023-03-21T05:11:30.980Z,61.03
2023-03-21T05:13:58.759Z,62.17
2023-03-21T05:16:30.530Z,61.78
2023-03-21T05:19:04.888Z,57.20
2023-03-21T05:21:41.319Z,61.08
2023-03-21T05:24:17.484Z,56.55
2023-03-21T05:26:50.415Z,54.20
2023-03-21T05:29:19.415Z,51.33
2023-03-21T05:31:46.516Z,51.67
2023-03-21T05:34:14.433Z,53.67
2023-03-21T05:36:41.310Z,49.58
2023-03-21T05:39:08.551Z,53.67
2023-03-21T05:41:35.904Z,46.63
2023-03-21T05:44:02.885Z,48.60
2023-03-21T05:46:30.302Z,45.10
2023-03-21T05:48:57.240Z,42.55
2023-03-21T05:51:24.126Z,42.17
2023-03-21T05:53:51.922Z,41.45
2023-03-21T05:56:19.248Z,43.45
2023-03-21T05:58:46.993Z,39.75
2023-03-21T06:01:14.153Z,40.17
2023-03-21T06:03:41.319Z,35.22
2023-03-21T06:06:08.819Z,36.83
2023-03-21T06:08:35.974Z,38.28
2023-03-21T06:11:03.072Z,36.83
2023-03-21T06:13:32.832Z,38.97
2023-03-21T06:15:59.761Z,34.03
2023-03-21T06:18:28.113Z,39.45
2023-03-21T06:20:56.736Z,33.25
2023-03-21T06:23:23.973Z,34.70
2023-03-21T06:25:51.192Z,34.20
2023-03-21T06:28:18.644Z,36.50
2023-03-21T06:30:46.070Z,34.75
2023-03-21T06:33:12.875Z,40.45
2023-03-21T06:35:39.953Z,38.10
2023-03-21T06:38:08.589Z,31.05
2023-03-21T06:40:35.454Z,33.13
2023-03-21T06:43:02.929Z,31.40
2023-03-21T06:45:30.391Z,31.00
2023-03-21T06:47:57.765Z,34.95
2023-03-21T06:50:24.709Z,32.25
2023-03-21T06:52:53.070Z,36.75
2023-03-21T06:55:23.078Z,36.28
2023-03-21T06:57:50.341Z,37.92
2023-03-21T07:00:18.237Z,36.90
2023-03-21T07:02:45.218Z,35.10
2023-03-21T07:05:12.576Z,36.10
2023-03-21T07:07:40.405Z,42.88
2023-03-21T07:10:10.307Z,37.28
2023-03-21T07:12:37.548Z,35.00
2023-03-21T07:15:04.778Z,36.55
2023-03-21T07:17:32.019Z,38.92
2023-03-21T07:20:00.113Z,35.00
2023-03-21T07:22:27.385Z,34.33
2023-03-21T07:25:04.426Z,37.92
2023-03-21T07:27:32.592Z,38.38
2023-03-21T07:29:59.575Z,37.28
2023-03-21T07:32:29.923Z,42.38
2023-03-21T07:34:57.064Z,38.47
2023-03-21T07:37:24.412Z,39.50
2023-03-21T07:39:52.028Z,40.67
2023-03-21T07:42:19.426Z,37.85
2023-03-21T07:44:46.345Z,35.25
2023-03-21T07:47:13.145Z,44.42
2023-03-21T07:49:40.452Z,62.30
2023-03-21T07:52:08.022Z,40.00
2023-03-21T07:54:35.461Z,38.75
2023-03-21T07:57:02.314Z,43.13
2023-03-21T07:59:29.176Z,44.53
2023-03-21T08:01:56.674Z,47.35
2023-03-21T08:04:23.657Z,46.33
2023-03-21T08:06:51.265Z,35.85
2023-03-21T08:09:18.075Z,39.80
2023-03-21T08:11:45.415Z,39.83
2023-03-21T08:14:12.741Z,38.08
2023-03-21T08:16:39.739Z,38.53
2023-03-21T08:19:06.658Z,42.85
2023-03-21T08:21:33.541Z,33.25
2023-03-21T08:24:00.786Z,35.90
2023-03-21T08:26:28.204Z,36.65
2023-03-21T08:28:55.840Z,38.08
2023-03-21T08:31:22.792Z,35.83
2023-03-21T08:33:54.397Z,36.33
2023-03-21T08:36:22.710Z,38.15
2023-03-21T08:38:54.186Z,34.95
2023-03-21T08:41:22.544Z,39.20
2023-03-21T08:43:49.791Z,47.35
2023-03-21T08:46:17.358Z,40.13
2023-03-21T08:48:44.627Z,46.38
2023-03-21T08:51:11.423Z,49.00
2023-03-21T08:53:38.675Z,49.88
2023-03-21T08:56:06.409Z,45.25
2023-03-21T08:58:33.635Z,46.85
2023-03-21T09:01:00.481Z,39.97
2023-03-21T09:03:27.789Z,41.70
2023-03-21T09:05:54.736Z,45.75
2023-03-21T09:08:23.519Z,63.13
2023-03-21T09:10:54.260Z,42.63
2023-03-21T09:13:21.698Z,41.17
2023-03-21T09:15:48.983Z,36.92
2023-03-21T09:18:18.313Z,37.30
2023-03-21T09:20:47.345Z,41.03
2023-03-21T09:23:15.348Z,34.33
2023-03-21T09:25:43.225Z,35.40
2023-03-21T09:28:10.679Z,36.90
2023-03-21T09:30:38.261Z,33.60
2023-03-21T09:33:13.188Z,29.85
2023-03-21T09:35:40.739Z,30.83
2023-03-21T09:38:08.473Z,32.17
2023-03-21T09:41:03.579Z,30.60
2023-03-21T09:43:58.761Z,33.38
2023-03-21T09:46:32.008Z,36.25
2023-03-21T09:51:37.219Z,30.60
2023-03-21T09:54:12.980Z,29.42
2023-03-21T09:56:43.160Z,30.08
2023-03-21T09:59:21.631Z,29.52
2023-03-21T10:01:49.570Z,76.28
2023-03-21T10:04:18.882Z,37.03
2023-03-21T10:06:54.140Z,32.28
2023-03-21T10:09:24.657Z,31.38
2023-03-21T10:11:58.054Z,33.42
2023-03-21T10:17:04.539Z,34.30
2023-03-21T10:19:31.737Z,30.75
2023-03-21T10:22:02.291Z,35.38
2023-03-21T10:24:33.418Z,33.40
2023-03-21T10:27:01.310Z,35.58
2023-03-21T10:29:33.274Z,33.55
2023-03-21T10:32:00.818Z,38.92
2023-03-21T10:34:40.940Z,31.73
2023-03-21T10:37:08.540Z,33.33
2023-03-21T10:39:40.274Z,39.78
2023-03-21T10:42:08.424Z,37.42
2023-03-21T10:44:36.422Z,34.63
2023-03-21T10:47:09.117Z,36.80
2023-03-21T10:50:05.776Z,35.53
2023-03-21T10:52:29.954Z,31.70
2023-03-21T10:55:28.775Z,32.08
2023-03-21T10:58:00.405Z,32.90
2023-03-21T11:00:36.052Z,33.17
2023-03-21T11:03:03.848Z,31.05
2023-03-21T11:05:41.016Z,70.57
2023-03-21T11:08:18.909Z,26.60
2023-03-21T11:10:58.984Z,22.70
2023-03-21T11:13:33.864Z,26.80
2023-03-21T11:16:23.009Z,27.83
2023-03-21T11:18:51.578Z,23.88
2023-03-21T11:21:18.653Z,24.83
2023-03-21T11:23:48.468Z,21.55
2023-03-21T11:26:29.844Z,25.23
2023-03-21T11:28:57.587Z,21.80
2023-03-21T11:31:40.618Z,21.27
2023-03-21T11:34:09.629Z,18.98
2023-03-21T11:36:41.609Z,17.85
2023-03-21T11:39:11.252Z,17.83
2023-03-21T11:41:41.137Z,15.82
2023-03-21T11:44:31.368Z,15.15
2023-03-21T11:46:58.710Z,18.20
2023-03-21T11:49:26.256Z,19.10
2023-03-21T11:51:53.833Z,17.80
2023-03-21T11:54:27.144Z,20.08
2023-03-21T11:57:20.558Z,18.48
2023-03-21T12:00:27.916Z,16.63
2023-03-21T12:03:16.001Z,14.45
2023-03-21T12:05:52.422Z,18.60
2023-03-21T12:08:35.761Z,20.35
2023-03-21T12:11:29.570Z,14.25
2023-03-21T12:14:12.701Z,21.35
2023-03-21T12:16:48.270Z,19.45
2023-03-21T12:19:47.348Z,18.83
2023-03-21T12:22:31.077Z,29.63
2023-03-21T12:25:11.134Z,15.50
2023-03-21T12:28:03.721Z,21.63
2023-03-21T12:30:43.029Z,14.98
2023-03-21T12:33:15.170Z,15.88
2023-03-21T12:35:42.553Z,16.05
2023-03-21T12:38:32.245Z,13.75
2023-03-21T12:41:12.041Z,16.50
2023-03-21T12:43:39.225Z,14.32
2023-03-21T12:46:38.019Z,17.92
2023-03-21T12:49:33.916Z,15.60
2023-03-21T12:52:24.403Z,14.88
2023-03-21T12:55:02.858Z,20.00
2023-03-21T12:57:32.496Z,68.50
2023-03-21T13:00:11.892Z,17.45
2023-03-21T13:03:01.364Z,17.38
2023-03-21T13:05:52.458Z,17.58
2023-03-21T13:08:35.175Z,20.63
2023-03-21T13:11:02.953Z,20.75
2023-03-21T13:13:30.329Z,16.80
2023-03-21T13:15:57.734Z,18.45
2023-03-21T13:18:27.479Z,18.30
2023-03-21T13:20:57.283Z,20.52
2023-03-21T13:23:26.026Z,16.58
2023-03-21T13:25:55.474Z,18.05
2023-03-21T13:28:31.417Z,63.35
2023-03-21T13:31:21.178Z,10.68
2023-03-21T13:33:53.782Z,11.65
2023-03-21T13:36:31.792Z,11.07
2023-03-21T13:39:06.035Z,11.98
2023-03-21T13:41:38.852Z,12.18
2023-03-21T13:44:19.122Z,14.02
2023-03-21T13:46:55.079Z,29.55
2023-03-21T13:49:36.928Z,17.23
2023-03-21T13:52:09.949Z,19.67
2023-03-21T13:54:53.428Z,17.80
2023-03-21T13:59:49.050Z,29.38
2023-03-21T14:02:34.199Z,20.80
2023-03-21T14:05:14.354Z,18.15
2023-03-21T14:07:44.547Z,16.80
2023-03-21T14:10:25.275Z,14.93
2023-03-21T14:12:53.959Z,14.75
2023-03-21T14:15:40.922Z,23.58
2023-03-21T14:18:35.192Z,17.42
2023-03-21T14:21:24.194Z,16.25
2023-03-21T14:24:16.935Z,21.85
2023-03-21T14:26:48.051Z,20.00
2023-03-21T14:29:26.181Z,16.60
2023-03-21T14:31:57.343Z,17.17
2023-03-21T14:34:26.563Z,19.45
2023-03-21T14:37:00.922Z,24.30
2023-03-21T14:39:33.447Z,21.60
2023-03-21T14:42:09.420Z,25.20
2023-03-21T14:44:53.911Z,18.65
2023-03-21T14:47:25.724Z,22.40
2023-03-21T14:49:53.068Z,25.17
2023-03-21T14:52:27.411Z,21.58
2023-03-21T14:54:55.951Z,27.13
2023-03-21T14:57:28.773Z,23.08
2023-03-21T14:59:59.267Z,23.00
2023-03-21T15:02:34.016Z,18.42
2023-03-21T15:05:17.283Z,23.75
2023-03-21T15:07:56.855Z,25.00
2023-03-21T15:10:26.030Z,25.83
2023-03-21T15:12:57.372Z,22.88
2023-03-21T15:15:27.688Z,30.48
2023-03-21T15:18:05.290Z,27.13
2023-03-21T15:20:36.814Z,28.05
2023-03-21T15:23:15.731Z,32.08
2023-03-21T15:25:43.280Z,30.30
2023-03-21T15:28:14.582Z,38.42
2023-03-21T15:30:51.402Z,27.67
2023-03-21T15:33:18.983Z,28.08
2023-03-21T15:35:58.100Z,28.85
2023-03-21T15:38:42.704Z,24.63
2023-03-21T15:41:23.107Z,25.00
2023-03-21T15:44:02.414Z,22.27
2023-03-21T15:46:52.589Z,20.30
2023-03-21T15:49:32.355Z,19.00
2023-03-21T15:52:12.103Z,19.13
2023-03-21T15:54:45.848Z,19.33
2023-03-21T15:57:33.004Z,18.92
2023-03-21T16:00:21.794Z,22.58
2023-03-21T16:02:53.496Z,25.55
2023-03-21T16:05:32.720Z,22.63
2023-03-21T16:08:22.261Z,22.92
2023-03-21T16:10:49.575Z,27.55
2023-03-21T16:13:17.524Z,20.90
2023-03-21T16:15:44.960Z,28.85
2023-03-21T16:18:19.562Z,25.67
2023-03-21T16:20:49.209Z,25.60
2023-03-21T16:23:17.400Z,28.70
2023-03-21T16:25:44.598Z,23.35
2023-03-21T16:28:17.787Z,27.95
2023-03-21T16:33:12.655Z,41.05
2023-03-21T16:35:40.539Z,31.90
2023-03-21T16:38:12.583Z,28.90
2023-03-21T16:40:43.073Z,29.58
2023-03-21T16:43:11.333Z,28.40
2023-03-21T16:45:38.695Z,30.02
2023-03-21T16:48:06.062Z,68.47
2023-03-21T16:50:40.070Z,35.33
2023-03-21T16:53:07.538Z,39.20
2023-03-21T16:55:35.912Z,38.38
2023-03-21T16:58:03.181Z,44.63
2023-03-21T17:00:31.436Z,42.85
2023-03-21T17:03:02.134Z,40.78
2023-03-21T17:05:33.088Z,42.88
2023-03-21T17:08:02.497Z,43.97
2023-03-21T17:10:32.283Z,49.58
2023-03-21T17:12:59.958Z,48.17
2023-03-21T17:15:27.204Z,36.30
2023-03-21T17:17:55.957Z,38.80
2023-03-21T17:20:32.360Z,33.95
2023-03-21T17:22:59.790Z,38.15
2023-03-21T17:25:27.638Z,35.35
2023-03-21T17:27:54.936Z,39.22
2023-03-21T17:30:27.688Z,37.35
2023-03-21T17:32:55.434Z,46.10
2023-03-21T17:35:23.708Z,46.40
2023-03-21T17:37:52.308Z,42.80
2023-03-21T17:40:25.310Z,45.25
2023-03-21T17:42:53.249Z,49.00
2023-03-21T17:45:20.730Z,44.10
2023-03-21T17:47:48.112Z,50.42
2023-03-21T17:50:21.089Z,50.20
2023-03-21T17:52:50.633Z,55.05
2023-03-21T17:55:19.677Z,48.38
2023-03-21T17:57:47.533Z,48.17
2023-03-21T18:00:23.532Z,51.40
2023-03-21T18:02:51.594Z,54.03
2023-03-21T18:05:19.225Z,46.53
2023-03-21T18:10:33.418Z,51.05
2023-03-21T18:13:00.837Z,45.15
2023-03-21T18:15:30.354Z,46.05
2023-03-21T18:17:58.043Z,44.90
2023-03-21T18:20:44.641Z,47.10
2023-03-21T18:23:14.958Z,50.33
2023-03-21T18:25:42.289Z,51.67
2023-03-21T18:28:12.187Z,55.17
2023-03-21T18:33:27.834Z,49.95
2023-03-21T18:35:59.415Z,48.85
2023-03-21T18:38:27.818Z,50.53
2023-03-21T18:40:55.507Z,52.45
2023-03-21T18:46:09.947Z,63.28
2023-03-21T18:48:37.556Z,63.10
2023-03-21T18:51:05.765Z,67.63
2023-03-21T18:53:33.146Z,64.55
2023-03-21T18:56:00.812Z,69.70
2023-03-21T18:58:29.428Z,68.57
2023-03-21T19:00:59.716Z,70.93
2023-03-21T19:03:35.792Z,65.43
2023-03-21T19:06:04.990Z,74.55
2023-03-21T19:08:34.689Z,75.75
2023-03-21T19:11:05.934Z,87.20
2023-03-21T19:13:34.125Z,97.72
2023-03-21T19:16:02.621Z,94.82
2023-03-21T19:18:53.089Z,107.97
2023-03-21T19:21:19.188Z,100.07
2023-03-21T19:26:34.494Z,92.72
2023-03-21T19:29:01.946Z,88.90
2023-03-21T19:31:29.258Z,89.20
2023-03-21T19:33:56.982Z,92.28
2023-03-21T19:36:24.279Z,95.68
2023-03-21T19:38:52.851Z,100.65
2023-03-21T19:41:20.710Z,97.95
2023-03-21T19:43:54.859Z,99.68
2023-03-21T19:46:25.487Z,97.30
2023-03-21T19:48:57.229Z,93.28
2023-03-21T19:51:29.897Z,97.60
2023-03-21T19:54:02.702Z,106.05
2023-03-21T19:56:31.547Z,100.77
2023-03-21T19:58:59.232Z,96.25
2023-03-21T20:01:27.777Z,103.55
2023-03-21T20:03:55.436Z,104.88
2023-03-21T20:06:24.034Z,110.18
2023-03-21T20:11:39.234Z,101.55
2023-03-21T20:14:06.545Z,89.38
2023-03-21T20:16:35.636Z,95.88
2023-03-21T20:19:05.045Z,93.03
2023-03-21T20:21:41.030Z,87.03
2023-03-21T20:24:12.829Z,89.32
2023-03-21T20:26:40.256Z,87.40
2023-03-21T20:29:56.443Z,89.05
2023-03-21T20:31:54.021Z,87.45
2023-03-21T20:34:21.871Z,82.95
2023-03-21T20:36:49.394Z,108.85
2023-03-21T20:39:16.578Z,81.32
2023-03-21T20:41:43.799Z,76.30
2023-03-21T20:46:57.638Z,75.25
2023-03-21T20:49:24.997Z,69.90
2023-03-21T20:54:42.362Z,82.50
2023-03-21T20:57:10.215Z,74.47
2023-03-21T20:59:37.466Z,79.72
2023-03-21T21:02:05.411Z,77.85
2023-03-21T21:05:17.232Z,81.07
2023-03-21T21:07:21.940Z,82.35
2023-03-21T21:09:49.614Z,84.47
2023-03-21T21:12:19.646Z,81.05
2023-03-21T21:14:48.291Z,79.43
2023-03-21T21:17:35.226Z,73.95
2023-03-21T21:20:15.392Z,74.60
2023-03-21T21:22:59.465Z,75.93
2023-03-21T21:25:29.015Z,78.28
2023-03-21T21:27:56.507Z,82.10
2023-03-21T21:30:23.886Z,82.63
2023-03-21T21:32:51.382Z,80.43
2023-03-21T21:35:20.806Z,77.97
2023-03-21T21:37:48.063Z,88.50
2023-03-21T21:40:20.722Z,85.05
2023-03-21T21:42:48.202Z,84.32
2023-03-21T21:45:16.018Z,87.90
2023-03-21T21:47:44.942Z,76.38
2023-03-21T21:50:12.680Z,71.45
2023-03-21T21:52:43.540Z,74.55
2023-03-21T21:55:11.012Z,74.10
2023-03-21T21:57:39.847Z,70.72
2023-03-21T22:00:12.965Z,71.45
2023-03-21T22:02:40.770Z,80.80
2023-03-21T22:05:08.986Z,67.85
2023-03-21T22:07:37.574Z,64.60
2023-03-21T22:10:05.083Z,68.25
2023-03-21T22:12:32.533Z,64.82
2023-03-21T22:14:59.784Z,71.35
2023-03-21T22:17:27.007Z,66.47
2023-03-21T22:20:05.262Z,70.70
2023-03-21T22:22:34.137Z,65.47
2023-03-21T22:25:01.421Z,66.93
2023-03-21T22:27:28.678Z,65.38
2023-03-21T22:29:56.168Z,56.53
2023-03-21T22:32:23.645Z,59.70
2023-03-21T22:34:51.299Z,56.90
2023-03-21T22:37:18.551Z,63.55
2023-03-21T22:39:45.930Z,55.55
2023-03-21T22:42:13.151Z,59.70
2023-03-21T22:44:40.649Z,55.13
2023-03-21T22:47:09.026Z,57.53
2023-03-21T22:49:37.005Z,54.63
2023-03-21T22:52:06.323Z,55.90
2023-03-21T22:54:33.768Z,57.25
2023-03-21T22:57:01.265Z,55.53
2023-03-21T22:59:28.753Z,55.42
2023-03-21T23:01:56.700Z,57.55
2023-03-21T23:04:24.521Z,52.78
2023-03-21T23:06:51.750Z,48.05
2023-03-21T23:09:19.044Z,70.82
2023-03-21T23:11:49.492Z,56.80
2023-03-21T23:14:17.596Z,53.80
2023-03-21T23:16:45.160Z,54.65
2023-03-21T23:19:12.533Z,67.13
2023-03-21T23:21:40.174Z,55.30
2023-03-21T23:24:07.584Z,56.33
2023-03-21T23:26:34.978Z,50.67
2023-03-21T23:29:02.192Z,51.08
2023-03-21T23:31:29.511Z,55.08
2023-03-21T23:33:59.000Z,55.17
2023-03-21T23:36:26.393Z,51.60
2023-03-21T23:38:53.625Z,51.95
2023-03-21T23:41:22.367Z,51.78
2023-03-21T23:43:49.710Z,50.20
2023-03-21T23:46:17.771Z,55.88
2023-03-21T23:48:45.669Z,50.60
2023-03-21T23:51:14.638Z,53.10
2023-03-21T23:53:41.916Z,59.53
2023-03-21T23:56:20.799Z,69.65
2023-03-21T23:58:48.147Z,63.70
